createdAt,value
2022-09-16T00:01:22.456Z,14.05
2022-09-16T00:03:50.993Z,14.10
2022-09-16T00:06:21.455Z,13.94
2022-09-16T00:08:50.386Z,13.94
2022-09-16T00:11:20.198Z,13.82
2022-09-16T00:13:48.596Z,13.87
2022-09-16T00:16:21.518Z,13.93
2022-09-16T00:18:50.459Z,14.24
2022-09-16T00:21:18.431Z,13.89
2022-09-16T00:23:46.520Z,13.87
2022-09-16T00:26:14.671Z,13.78
2022-09-16T00:28:44.486Z,13.77
2022-09-16T00:31:13.013Z,13.67
2022-09-16T00:33:40.979Z,13.73
2022-09-16T00:36:10.941Z,13.77
2022-09-16T00:38:40.299Z,13.69
2022-09-16T00:41:09.428Z,13.77
2022-09-16T00:43:55.853Z,13.84
2022-09-16T00:46:31.549Z,13.81
2022-09-16T00:49:03.458Z,13.80
2022-09-16T00:51:31.455Z,13.61
2022-09-16T00:54:04.791Z,13.80
2022-09-16T00:56:38.689Z,13.72
2022-09-16T00:59:11.283Z,13.74
2022-09-16T01:01:40.682Z,13.78
2022-09-16T01:04:15.240Z,13.61
2022-09-16T01:06:44.099Z,13.68
2022-09-16T01:09:12.282Z,13.64
2022-09-16T01:11:40.326Z,13.77
2022-09-16T01:14:27.743Z,13.66
2022-09-16T01:17:00.250Z,13.53
2022-09-16T01:19:53.073Z,13.53
2022-09-16T01:22:43.142Z,13.63
2022-09-16T01:25:27.249Z,13.60
2022-09-16T01:28:16.842Z,13.81
2022-09-16T01:31:09.403Z,13.73
2022-09-16T01:33:45.929Z,13.64
2022-09-16T01:36:27.284Z,13.74
2022-09-16T01:39:09.079Z,13.82
2022-09-16T01:42:06.419Z,13.73
2022-09-16T01:44:41.328Z,13.80
2022-09-16T01:47:22.266Z,14.15
2022-09-16T01:50:01.021Z,14.23
2022-09-16T01:52:40.798Z,14.66
2022-09-16T01:55:15.059Z,14.29
2022-09-16T01:57:52.355Z,14.03
2022-09-16T02:00:21.315Z,14.16
2022-09-16T02:02:57.624Z,14.05
2022-09-16T02:05:29.783Z,14.01
2022-09-16T02:08:03.196Z,13.96
2022-09-16T02:10:34.900Z,14.04
2022-09-16T02:13:09.419Z,13.96
2022-09-16T02:15:41.769Z,14.23
2022-09-16T02:18:14.374Z,14.07
2022-09-16T02:20:46.414Z,13.87
2022-09-16T02:23:17.824Z,13.90
2022-09-16T02:25:49.666Z,13.81
2022-09-16T02:28:21.726Z,13.77
2022-09-16T02:30:54.351Z,13.71
2022-09-16T02:33:26.452Z,13.60
2022-09-16T02:35:56.886Z,13.68
2022-09-16T02:38:28.374Z,13.64
2022-09-16T02:41:00.047Z,13.66
2022-09-16T02:43:30.056Z,13.67
2022-09-16T02:46:08.120Z,13.69
2022-09-16T02:48:48.419Z,13.63
2022-09-16T02:51:26.055Z,13.73
2022-09-16T02:53:58.230Z,13.95
2022-09-16T02:56:32.094Z,14.01
2022-09-16T02:59:01.717Z,13.87
2022-09-16T03:01:33.095Z,13.76
2022-09-16T03:04:02.490Z,13.66
2022-09-16T03:06:36.314Z,13.82
2022-09-16T03:09:07.349Z,13.92
2022-09-16T03:12:03.971Z,13.79
2022-09-16T03:15:03.527Z,14.05
2022-09-16T03:17:59.382Z,13.89
2022-09-16T03:20:37.469Z,14.36
2022-09-16T03:23:15.212Z,14.09
2022-09-16T03:25:49.996Z,14.37
2022-09-16T03:28:20.693Z,14.48
2022-09-16T03:30:56.497Z,14.48
2022-09-16T03:33:29.497Z,14.56
2022-09-16T03:36:01.853Z,14.32
2022-09-16T03:38:30.281Z,14.57
2022-09-16T03:40:58.545Z,14.98
2022-09-16T03:43:26.604Z,15.08
2022-09-16T03:45:54.378Z,15.20
2022-09-16T03:48:22.518Z,14.97
2022-09-16T03:50:50.314Z,14.94
2022-09-16T03:53:19.726Z,15.08
2022-09-16T03:55:49.847Z,14.61
2022-09-16T03:58:17.955Z,15.20
2022-09-16T04:00:50.817Z,14.89
2022-09-16T04:03:19.226Z,14.76
2022-09-16T04:05:47.384Z,14.72
2022-09-16T04:08:15.515Z,14.79
2022-09-16T04:10:54.026Z,14.65
2022-09-16T04:13:21.759Z,14.45
2022-09-16T04:15:49.519Z,14.47
2022-09-16T04:18:17.990Z,14.42
2022-09-16T04:20:47.106Z,14.25
2022-09-16T04:23:15.151Z,14.39
2022-09-16T04:25:44.154Z,14.51
2022-09-16T04:28:12.155Z,14.48
2022-09-16T04:30:39.980Z,14.62
2022-09-16T04:33:07.753Z,14.86
2022-09-16T04:35:35.446Z,14.79
2022-09-16T04:38:03.525Z,14.61
2022-09-16T04:40:31.216Z,14.37
2022-09-16T04:43:00.313Z,14.51
2022-09-16T04:45:28.042Z,14.68
2022-09-16T04:47:57.917Z,15.03
2022-09-16T04:50:25.723Z,14.63
2022-09-16T04:52:54.281Z,15.17
2022-09-16T04:55:24.083Z,14.80
2022-09-16T04:57:52.805Z,14.52
2022-09-16T05:00:22.064Z,14.69
2022-09-16T05:02:50.140Z,14.73
2022-09-16T05:05:18.296Z,14.66
2022-09-16T05:07:46.429Z,14.53
2022-09-16T05:10:14.214Z,14.98
2022-09-16T05:12:44.732Z,14.48
2022-09-16T05:15:15.819Z,15.00
2022-09-16T05:17:51.223Z,15.00
2022-09-16T05:20:19.521Z,15.05
2022-09-16T05:22:50.408Z,14.71
2022-09-16T05:25:18.526Z,14.69
2022-09-16T05:27:47.506Z,14.90
2022-09-16T05:30:17.378Z,14.67
2022-09-16T05:32:50.191Z,14.65
2022-09-16T05:35:18.121Z,14.65
2022-09-16T05:37:46.283Z,14.75
2022-09-16T05:40:14.717Z,14.69
2022-09-16T05:42:43.086Z,15.04
2022-09-16T05:45:11.807Z,15.12
2022-09-16T05:47:42.789Z,15.06
2022-09-16T05:50:12.111Z,15.08
2022-09-16T05:52:40.430Z,15.41
2022-09-16T05:55:09.612Z,15.33
2022-09-16T05:57:37.853Z,15.67
2022-09-16T06:00:07.175Z,15.65
2022-09-16T06:02:35.368Z,15.55
2022-09-16T06:05:03.366Z,15.78
2022-09-16T06:07:33.059Z,15.76
2022-09-16T06:10:01.377Z,16.02
2022-09-16T06:12:29.751Z,16.03
2022-09-16T06:14:57.551Z,16.29
2022-09-16T06:17:25.375Z,16.68
2022-09-16T06:19:53.284Z,16.60
2022-09-16T06:22:21.052Z,16.62
2022-09-16T06:24:50.483Z,16.94
2022-09-16T06:27:18.798Z,17.14
2022-09-16T06:29:46.717Z,17.05
2022-09-16T06:32:15.889Z,17.16
2022-09-16T06:34:44.190Z,17.33
2022-09-16T06:37:13.654Z,17.66
2022-09-16T06:39:42.775Z,17.91
2022-09-16T06:42:12.564Z,17.42
2022-09-16T06:44:40.339Z,17.67
2022-09-16T06:47:08.514Z,17.80
2022-09-16T06:49:36.505Z,18.30
2022-09-16T06:52:04.866Z,18.24
2022-09-16T06:54:32.620Z,18.17
2022-09-16T06:57:00.737Z,18.92
2022-09-16T06:59:29.955Z,19.02
2022-09-16T07:01:58.140Z,19.15
2022-09-16T07:04:26.035Z,19.23
2022-09-16T07:07:10.581Z,19.22
2022-09-16T07:09:38.612Z,19.62
2022-09-16T07:12:07.225Z,20.06
2022-09-16T07:14:36.363Z,20.54
2022-09-16T07:17:05.068Z,20.86
2022-09-16T07:19:32.799Z,22.89
2022-09-16T07:22:00.940Z,23.57
2022-09-16T07:24:28.913Z,25.67
2022-09-16T07:26:57.031Z,25.11
2022-09-16T07:29:24.848Z,25.49
2022-09-16T07:31:54.375Z,25.30
2022-09-16T07:34:22.401Z,23.81
2022-09-16T07:36:51.238Z,25.49
2022-09-16T07:39:21.150Z,26.06
2022-09-16T07:41:50.014Z,25.17
2022-09-16T07:44:19.411Z,24.78
2022-09-16T07:46:48.464Z,24.46
2022-09-16T07:49:19.113Z,25.43
2022-09-16T07:51:47.232Z,24.51
2022-09-16T07:54:17.437Z,23.39
2022-09-16T07:56:46.310Z,22.82
2022-09-16T07:59:18.694Z,21.94
2022-09-16T08:01:47.684Z,22.05
2022-09-16T08:04:17.378Z,22.14
2022-09-16T08:06:45.645Z,24.24
2022-09-16T08:09:37.394Z,26.24
2022-09-16T08:12:04.606Z,27.15
2022-09-16T08:14:33.209Z,24.74
2022-09-16T08:17:04.262Z,23.60
2022-09-16T08:19:33.316Z,22.75
2022-09-16T08:22:01.355Z,22.27
2022-09-16T08:24:29.031Z,22.53
2022-09-16T08:29:29.724Z,23.39
2022-09-16T08:31:57.831Z,24.05
2022-09-16T08:34:25.836Z,24.36
2022-09-16T08:36:55.328Z,23.34
2022-09-16T08:39:23.069Z,24.35
2022-09-16T08:42:19.899Z,23.71
2022-09-16T08:44:57.622Z,22.32
2022-09-16T08:47:36.594Z,21.32
2022-09-16T08:50:07.148Z,20.71
2022-09-16T08:52:38.882Z,20.80
2022-09-16T08:55:12.438Z,23.21
2022-09-16T08:57:43.948Z,24.50
2022-09-16T09:00:16.606Z,23.42
2022-09-16T09:02:52.293Z,23.49
2022-09-16T09:05:28.318Z,22.29
2022-09-16T09:08:11.620Z,22.45
2022-09-16T09:10:47.010Z,22.07
2022-09-16T09:13:32.149Z,20.27
2022-09-16T09:16:10.360Z,20.31
2022-09-16T09:18:44.694Z,19.78
2022-09-16T09:21:27.241Z,20.80
2022-09-16T09:24:18.383Z,21.44
2022-09-16T09:26:50.285Z,23.87
2022-09-16T09:29:33.884Z,24.80
2022-09-16T09:32:15.036Z,24.69
2022-09-16T09:35:06.437Z,26.74
2022-09-16T09:38:05.562Z,28.40
2022-09-16T09:40:40.697Z,28.11
2022-09-16T09:43:13.432Z,25.06
2022-09-16T09:45:49.462Z,25.60
2022-09-16T09:48:22.345Z,24.60
2022-09-16T09:50:51.765Z,25.25
2022-09-16T09:53:23.572Z,25.02
2022-09-16T09:56:06.254Z,25.08
2022-09-16T09:58:40.980Z,23.24
2022-09-16T10:01:11.586Z,23.49
2022-09-16T10:03:40.595Z,23.20
2022-09-16T10:06:08.941Z,23.10
2022-09-16T10:08:50.105Z,23.32
2022-09-16T10:11:21.976Z,23.44
2022-09-16T10:13:53.434Z,23.20
2022-09-16T10:16:23.534Z,24.10
2022-09-16T10:19:02.674Z,23.35
2022-09-16T10:21:46.174Z,23.79
2022-09-16T10:24:35.077Z,24.76
2022-09-16T10:27:21.692Z,24.77
2022-09-16T10:30:03.337Z,24.68
2022-09-16T10:32:32.081Z,24.97
2022-09-16T10:35:00.142Z,23.76
2022-09-16T10:37:30.383Z,23.78
2022-09-16T10:39:59.493Z,23.55
2022-09-16T10:42:41.043Z,23.20
2022-09-16T10:45:16.766Z,23.20
2022-09-16T10:47:51.582Z,23.70
2022-09-16T10:50:20.877Z,23.93
2022-09-16T10:52:50.120Z,23.99
2022-09-16T10:55:28.393Z,23.76
2022-09-16T10:58:08.856Z,24.21
2022-09-16T11:00:46.996Z,24.47
2022-09-16T11:03:43.294Z,25.03
2022-09-16T11:06:24.019Z,25.15
2022-09-16T11:09:03.125Z,25.24
2022-09-16T11:11:45.683Z,24.40
2022-09-16T11:14:24.679Z,24.65
2022-09-16T11:17:11.513Z,24.38
2022-09-16T11:19:51.036Z,23.63
2022-09-16T11:22:31.015Z,23.65
2022-09-16T11:25:25.990Z,25.01
2022-09-16T11:28:02.591Z,24.46
2022-09-16T11:30:39.067Z,23.71
2022-09-16T11:33:20.648Z,23.97
2022-09-16T11:36:24.865Z,24.24
2022-09-16T11:39:06.142Z,23.99
2022-09-16T11:41:41.312Z,24.80
2022-09-16T11:44:26.425Z,24.21
2022-09-16T11:47:08.146Z,23.99
2022-09-16T11:49:48.912Z,24.18
2022-09-16T11:52:33.899Z,23.91
2022-09-16T11:55:19.483Z,23.32
2022-09-16T11:57:53.839Z,23.90
2022-09-16T12:00:21.602Z,24.47
2022-09-16T12:02:59.752Z,24.24
2022-09-16T12:05:34.547Z,24.17
2022-09-16T12:08:11.029Z,24.17
2022-09-16T12:10:46.352Z,23.86
2022-09-16T12:13:18.338Z,24.05
2022-09-16T12:15:50.421Z,24.79
2022-09-16T12:18:23.647Z,23.51
2022-09-16T12:20:54.810Z,23.57
2022-09-16T12:23:25.751Z,24.19
2022-09-16T12:26:05.756Z,24.28
2022-09-16T12:28:39.145Z,24.21
2022-09-16T12:31:14.613Z,23.74
2022-09-16T12:33:50.404Z,23.61
2022-09-16T12:36:23.954Z,23.32
2022-09-16T12:38:52.383Z,22.96
2022-09-16T12:41:43.209Z,22.01
2022-09-16T12:44:44.765Z,20.84
2022-09-16T12:47:27.084Z,19.60
2022-09-16T12:50:16.049Z,17.93
2022-09-16T12:53:07.217Z,17.19
2022-09-16T12:56:02.718Z,17.45
2022-09-16T13:01:54.621Z,16.39
2022-09-16T13:04:31.094Z,15.90
2022-09-16T13:31:33.963Z,20.98
2022-09-16T13:34:16.493Z,21.00
2022-09-16T13:36:44.589Z,21.18
2022-09-16T13:39:14.619Z,21.46
2022-09-16T13:41:44.736Z,21.34
2022-09-16T13:44:31.869Z,21.12
2022-09-16T13:47:18.000Z,21.43
2022-09-16T13:49:51.718Z,20.63
2022-09-16T13:52:22.932Z,20.22
2022-09-16T13:55:10.111Z,19.67
2022-09-16T13:57:49.768Z,19.34
2022-09-16T14:00:22.299Z,19.27
2022-09-16T14:03:03.358Z,19.77
2022-09-16T14:05:45.135Z,20.02
2022-09-16T14:08:20.937Z,20.00
2022-09-16T14:10:57.944Z,20.19
2022-09-16T14:13:33.685Z,20.55
2022-09-16T14:16:01.686Z,20.40
2022-09-16T14:18:34.377Z,20.46
2022-09-16T14:21:05.495Z,20.03
2022-09-16T14:23:35.397Z,20.25
2022-09-16T14:26:11.841Z,20.05
2022-09-16T14:28:39.931Z,19.59
2022-09-16T14:31:09.908Z,19.64
2022-09-16T14:33:43.816Z,19.45
2022-09-16T14:36:15.923Z,19.33
2022-09-16T14:38:48.469Z,18.98
2022-09-16T14:41:24.055Z,18.89
2022-09-16T14:43:53.452Z,18.90
2022-09-16T14:46:21.369Z,19.18
2022-09-16T14:48:51.248Z,19.64
2022-09-16T14:51:25.156Z,19.12
2022-09-16T14:54:12.155Z,19.22
2022-09-16T14:56:41.127Z,18.46
2022-09-16T14:59:13.195Z,17.27
2022-09-16T15:01:41.998Z,17.11
2022-09-16T15:04:19.125Z,16.21
2022-09-16T15:06:52.760Z,15.06
2022-09-16T15:09:25.795Z,15.21
2022-09-16T15:11:58.135Z,15.31
2022-09-16T15:14:27.269Z,15.30
2022-09-16T15:16:59.890Z,15.83
2022-09-16T15:19:34.417Z,15.87
2022-09-16T15:22:03.381Z,16.29
2022-09-16T15:24:36.194Z,16.34
2022-09-16T15:27:04.966Z,16.42
2022-09-16T15:29:35.621Z,16.24
2022-09-16T15:32:21.652Z,15.93
2022-09-16T15:35:05.510Z,15.70
2022-09-16T15:37:34.910Z,15.50
2022-09-16T15:40:20.640Z,15.97
2022-09-16T15:42:49.480Z,15.86
2022-09-16T15:45:20.319Z,16.20
2022-09-16T15:47:57.637Z,16.15
2022-09-16T15:50:30.552Z,16.25
2022-09-16T15:53:03.187Z,16.29
2022-09-16T15:55:36.242Z,16.25
2022-09-16T15:58:11.881Z,16.23
2022-09-16T16:01:13.365Z,15.98
2022-09-16T16:03:53.197Z,15.93
2022-09-16T16:06:43.293Z,15.69
2022-09-16T16:09:35.287Z,15.89
2022-09-16T16:12:05.606Z,15.82
2022-09-16T16:14:34.257Z,15.32
2022-09-16T16:17:19.091Z,15.29
2022-09-16T16:19:49.726Z,15.28
2022-09-16T16:22:20.940Z,14.87
2022-09-16T16:24:48.910Z,14.71
2022-09-16T16:27:16.718Z,14.40
2022-09-16T16:29:44.490Z,14.42
2022-09-16T16:32:14.532Z,14.17
2022-09-16T16:34:43.872Z,14.20
2022-09-16T16:37:27.954Z,14.16
2022-09-16T16:40:03.253Z,13.98
2022-09-16T16:42:31.609Z,13.80
2022-09-16T16:44:59.530Z,13.67
2022-09-16T16:47:27.367Z,13.76
2022-09-16T16:49:55.626Z,13.61
2022-09-16T16:52:23.539Z,13.67
2022-09-16T16:54:52.066Z,13.84
2022-09-16T16:57:21.765Z,13.72
2022-09-16T16:59:49.471Z,13.66
2022-09-16T17:02:17.967Z,13.61
2022-09-16T17:04:45.854Z,13.59
2022-09-16T17:07:25.658Z,13.45
2022-09-16T17:09:54.746Z,13.35
2022-09-16T17:12:24.360Z,13.18
2022-09-16T17:14:52.215Z,13.37
2022-09-16T17:17:20.643Z,13.25
2022-09-16T17:19:48.502Z,13.22
2022-09-16T17:22:16.601Z,13.07
2022-09-16T17:24:44.468Z,13.03
2022-09-16T17:27:14.580Z,12.99
2022-09-16T17:29:43.756Z,13.01
2022-09-16T17:32:11.965Z,12.93
2022-09-16T17:34:41.487Z,13.01
2022-09-16T17:37:09.462Z,12.98
2022-09-16T17:39:38.363Z,13.09
2022-09-16T17:42:06.778Z,13.12
2022-09-16T17:44:34.735Z,13.16
2022-09-16T17:47:04.150Z,13.40
2022-09-16T17:49:32.869Z,13.82
2022-09-16T17:52:00.558Z,14.11
2022-09-16T17:54:28.557Z,13.74
2022-09-16T17:56:56.182Z,13.82
2022-09-16T17:59:26.065Z,14.08
2022-09-16T18:01:53.764Z,13.59
2022-09-16T18:04:23.236Z,14.00
2022-09-16T18:06:51.517Z,14.51
2022-09-16T18:09:19.502Z,13.95
2022-09-16T18:11:47.231Z,13.44
2022-09-16T18:14:17.299Z,13.16
2022-09-16T18:16:47.936Z,13.38
2022-09-16T18:19:16.127Z,13.58
2022-09-16T18:21:45.193Z,13.68
2022-09-16T18:24:13.808Z,13.59
2022-09-16T18:26:42.128Z,13.40
2022-09-16T18:29:12.082Z,13.25
2022-09-16T18:31:41.889Z,13.30
2022-09-16T18:34:10.021Z,13.12
2022-09-16T18:36:39.210Z,12.55
2022-09-16T18:39:12.165Z,12.72
2022-09-16T18:41:41.525Z,13.26
2022-09-16T18:44:14.792Z,13.32
2022-09-16T18:46:42.908Z,13.25
2022-09-16T18:49:13.755Z,13.19
2022-09-16T18:51:49.849Z,12.93
2022-09-16T18:54:24.864Z,12.70
2022-09-16T18:56:55.606Z,12.41
2022-09-16T18:59:26.878Z,12.14
2022-09-16T19:01:56.848Z,12.01
2022-09-16T19:04:27.218Z,11.96
2022-09-16T19:06:57.020Z,12.08
2022-09-16T19:09:26.450Z,11.99
2022-09-16T19:11:54.549Z,12.15
2022-09-16T19:14:24.853Z,12.03
2022-09-16T19:16:53.156Z,11.64
2022-09-16T19:19:21.726Z,11.66
2022-09-16T19:21:50.161Z,11.53
2022-09-16T19:24:19.641Z,11.49
2022-09-16T19:26:50.502Z,11.37
2022-09-16T19:29:19.515Z,11.33
2022-09-16T19:31:50.447Z,11.26
2022-09-16T19:34:18.727Z,11.18
2022-09-16T19:36:46.531Z,11.15
2022-09-16T19:39:15.055Z,11.19
2022-09-16T19:41:44.183Z,11.07
2022-09-16T19:44:15.616Z,10.92
2022-09-16T19:46:45.145Z,10.96
2022-09-16T19:49:18.237Z,10.89
2022-09-16T19:51:46.208Z,10.86
2022-09-16T19:54:13.925Z,10.78
2022-09-16T19:56:47.012Z,10.76
2022-09-16T19:59:19.713Z,10.72
2022-09-16T20:01:48.264Z,10.72
2022-09-16T20:04:19.422Z,10.55
2022-09-16T20:06:47.660Z,10.44
2022-09-16T20:09:15.341Z,10.46
2022-09-16T20:11:45.403Z,10.55
2022-09-16T20:14:16.215Z,10.65
2022-09-16T20:16:45.739Z,10.70
2022-09-16T20:19:16.173Z,10.70
2022-09-16T20:21:44.770Z,10.53
2022-09-16T20:24:15.762Z,10.45
2022-09-16T20:26:44.034Z,10.46
2022-09-16T20:29:11.985Z,10.59
2022-09-16T20:31:40.138Z,10.57
2022-09-16T20:34:11.948Z,10.73
2022-09-16T20:36:40.738Z,10.57
2022-09-16T20:39:09.327Z,10.34
2022-09-16T20:41:38.984Z,10.14
2022-09-16T20:44:07.115Z,9.99
2022-09-16T20:46:37.330Z,10.01
2022-09-16T20:49:09.395Z,10.02
2022-09-16T20:51:38.506Z,9.96
2022-09-16T20:54:08.721Z,10.03
2022-09-16T20:56:39.396Z,10.09
2022-09-16T20:59:08.476Z,10.05
2022-09-16T21:01:38.377Z,10.03
2022-09-16T21:04:08.087Z,10.07
2022-09-16T21:06:38.274Z,10.11
2022-09-16T21:09:11.424Z,10.21
2022-09-16T21:11:45.095Z,10.39
2022-09-16T21:14:16.035Z,11.20
2022-09-16T21:16:45.867Z,11.06
2022-09-16T21:19:14.044Z,10.76
2022-09-16T21:21:46.579Z,10.66
2022-09-16T21:24:14.535Z,10.59
2022-09-16T21:26:44.266Z,10.52
2022-09-16T21:29:13.740Z,10.35
2022-09-16T21:31:43.561Z,10.25
2022-09-16T21:34:13.886Z,10.16
2022-09-16T21:36:45.107Z,10.08
2022-09-16T21:39:13.713Z,10.02
2022-09-16T21:41:41.959Z,9.94
2022-09-16T21:44:09.867Z,9.91
2022-09-16T21:46:48.184Z,10.11
2022-09-16T21:49:22.410Z,9.92
2022-09-16T21:51:52.484Z,9.94
2022-09-16T21:54:20.835Z,10.05
2022-09-16T21:56:49.562Z,10.29
2022-09-16T21:59:17.585Z,10.26
2022-09-16T22:01:45.836Z,10.21
2022-09-16T22:04:15.558Z,10.64
2022-09-16T22:06:44.174Z,10.61
2022-09-16T22:09:13.606Z,11.09
2022-09-16T22:11:42.777Z,11.20
2022-09-16T22:14:12.446Z,11.69
2022-09-16T22:16:41.482Z,11.44
2022-09-16T22:19:11.214Z,11.32
2022-09-16T22:21:41.506Z,11.60
2022-09-16T22:24:10.172Z,11.32
2022-09-16T22:26:39.564Z,11.88
2022-09-16T22:29:09.387Z,11.70
2022-09-16T22:31:38.791Z,11.60
2022-09-16T22:34:07.032Z,11.63
2022-09-16T22:36:36.592Z,11.04
2022-09-16T22:39:07.142Z,10.94
2022-09-16T22:41:35.463Z,10.99
2022-09-16T22:44:05.558Z,10.88
2022-09-16T22:46:36.672Z,10.62
2022-09-16T22:49:05.290Z,10.57
2022-09-16T22:51:33.438Z,10.80
2022-09-16T22:54:01.181Z,11.11
2022-09-16T22:56:32.439Z,10.91
2022-09-16T22:59:02.116Z,10.88
2022-09-16T23:01:33.475Z,10.76
2022-09-16T23:04:03.290Z,10.32
2022-09-16T23:06:32.913Z,10.12
2022-09-16T23:09:01.042Z,10.08
2022-09-16T23:11:31.204Z,9.79
2022-09-16T23:14:00.203Z,9.99
2022-09-16T23:16:30.467Z,9.73
2022-09-16T23:19:01.993Z,9.47
2022-09-16T23:21:31.321Z,9.38
2022-09-16T23:24:05.230Z,9.70
2022-09-16T23:26:37.991Z,9.76
2022-09-16T23:29:08.012Z,10.08
2022-09-16T23:31:37.710Z,10.25
2022-09-16T23:34:08.615Z,9.89
2022-09-16T23:36:38.267Z,9.94
2022-09-16T23:39:07.424Z,9.72
2022-09-16T23:41:35.631Z,9.74
2022-09-16T23:44:03.615Z,9.52
2022-09-16T23:46:31.715Z,9.54
2022-09-16T23:49:00.001Z,9.59
2022-09-16T23:51:32.292Z,9.52
2022-09-16T23:54:00.637Z,9.28
2022-09-16T23:56:28.724Z,9.40
2022-09-16T23:59:00.513Z,9.51
